Time;durP1;ratioP1;P1;durP2;ratioP2;P2;SDS_P1;SDS_P2;PMS_P1;PMS_P2;Temp;Humidity;BMP_temperature;BMP_pressure;BME280_temperature;BME280_humidity;BME280_pressure;Samples;Min_cycle;Max_cycle;Signal;HPM_P1;HPM_P2
2022/08/26 00:01:54;;;;;;;0.80;0.80;;;;;;;27.53;41.52;94717.81;5057400;28;20206;-68
2022/08/26 00:04:23;;;;;;;0.20;0.20;;;;;;;27.76;41.05;94715.78;5043351;28;20210;-68
2022/08/26 00:06:55;;;;;;;0.90;0.73;;;;;;;27.47;41.56;94708.53;5041948;28;20197;-68
2022/08/26 00:09:24;;;;;;;0.50;0.50;;;;;;;27.21;42.60;94700.50;5029645;28;20193;-68
2022/08/26 00:11:52;;;;;;;0.37;0.37;;;;;;;27.39;41.71;94701.50;5054488;28;20711;-68
2022/08/26 00:14:20;;;;;;;1.23;1.13;;;;;;;26.52;43.70;94712.50;5054433;28;20206;-69
2022/08/26 00:16:47;;;;;;;0.73;0.57;;;;;;;26.66;43.04;94708.13;5045921;28;20290;-68
2022/08/26 00:19:19;;;;;;;0.93;0.87;;;;;;;26.87;42.30;94711.16;5060854;28;20196;-68
2022/08/26 00:21:47;;;;;;;1.43;1.33;;;;;;;26.95;41.84;94704.72;5059555;28;20204;-68
2022/08/26 00:24:16;;;;;;;0.33;0.33;;;;;;;27.26;41.32;94702.84;5051610;28;20192;-68
2022/08/26 00:26:44;;;;;;;0.40;0.40;;;;;;;26.69;42.50;94688.63;5048845;28;20196;-67
2022/08/26 00:29:12;;;;;;;0.90;0.90;;;;;;;26.16;43.77;94705.78;5062721;28;20204;-68
2022/08/26 00:31:41;;;;;;;0.40;0.40;;;;;;;25.90;44.23;94702.97;5040840;28;20295;-68
2022/08/26 00:34:11;;;;;;;0.30;0.30;;;;;;;26.06;44.04;94694.84;5043098;28;20199;-69
2022/08/26 00:36:39;;;;;;;19.43;2.17;;;;;;;26.13;43.86;94701.09;5048702;28;20216;-67
2022/08/26 00:39:07;;;;;;;1.03;1.00;;;;;;;26.44;43.50;94700.84;5062137;28;20215;-69
2022/08/26 00:41:37;;;;;;;5.00;1.27;;;;;;;26.84;43.26;94698.44;5054396;28;20546;-69
2022/08/26 00:44:04;;;;;;;1.70;0.97;;;;;;;26.98;42.94;94704.03;5056062;28;20242;-68
2022/08/26 00:46:35;;;;;;;0.70;0.70;;;;;;;26.87;42.86;94681.59;5058528;28;20259;-68
2022/08/26 00:49:09;;;;;;;1.00;0.97;;;;;;;26.97;42.87;94707.84;5050815;28;20231;-66
2022/08/26 00:51:55;;;;;;;0.57;0.57;;;;;;;27.03;43.08;94705.63;5039378;28;20661;-68
2022/08/26 00:54:25;;;;;;;0.77;0.77;;;;;;;27.04;42.94;94713.31;5068107;28;20577;-68
2022/08/26 00:57:01;;;;;;;0.50;0.50;;;;;;;26.90;42.83;94686.22;5034162;28;20212;-69
2022/08/26 00:59:31;;;;;;;0.50;0.50;;;;;;;27.20;42.85;94705.09;5068339;28;20605;-68
2022/08/26 01:02:00;;;;;;;0.37;0.37;;;;;;;27.10;43.19;94700.31;5065209;28;20791;-68
2022/08/26 01:04:32;;;;;;;0.63;0.50;;;;;;;27.19;43.19;94697.38;5036685;28;20196;-69
2022/08/26 01:06:59;;;;;;;0.53;0.53;;;;;;;27.00;43.56;94701.75;5065688;28;20210;-68
2022/08/26 01:09:27;;;;;;;0.53;0.53;;;;;;;27.01;43.56;94692.53;5072542;28;20188;-68
2022/08/26 01:11:57;;;;;;;0.27;0.27;;;;;;;26.96;44.18;94690.16;5058237;28;20243;-69
2022/08/26 01:14:28;;;;;;;0.67;0.67;;;;;;;27.05;43.82;94692.56;5038725;28;20200;-68
2022/08/26 01:16:55;;;;;;;1.23;1.13;;;;;;;27.02;43.92;94672.56;5040617;28;20197;-66
2022/08/26 01:19:29;;;;;;;1.23;0.80;;;;;;;26.96;43.07;94684.78;5070768;28;20195;-67
2022/08/26 01:22:13;;;;;;;0.47;0.47;;;;;;;27.16;42.92;94681.94;5049042;28;20648;-67
2022/08/26 01:24:40;;;;;;;1.00;0.60;;;;;;;27.13;43.31;94677.31;5039207;28;20231;-68
2022/08/26 01:27:11;;;;;;;0.90;0.80;;;;;;;27.28;43.24;94684.44;5065939;28;20203;-67
2022/08/26 01:29:41;;;;;;;0.67;0.57;;;;;;;27.13;43.49;94683.47;5053410;28;20205;-67
2022/08/26 01:32:13;;;;;;;0.37;0.37;;;;;;;27.21;43.30;94679.72;5064662;28;20652;-67
2022/08/26 01:34:40;;;;;;;4.17;2.20;;;;;;;26.97;43.22;94683.63;5067694;28;20197;-69
2022/08/26 01:37:15;;;;;;;0.20;0.20;;;;;;;26.19;44.22;94683.56;5063240;28;20643;-68
2022/08/26 01:39:47;;;;;;;0.60;0.60;;;;;;;26.60;43.47;94681.91;5063281;28;20197;-69
2022/08/26 01:42:16;;;;;;;1.63;1.40;;;;;;;26.98;43.35;94698.66;5054015;28;20703;-68
2022/08/26 01:44:52;;;;;;;1.03;0.93;;;;;;;26.82;42.90;94695.31;5053917;28;20320;-68
2022/08/26 01:47:23;;;;;;;20.77;1.90;;;;;;;26.74;42.70;94658.72;5051748;28;20192;-68
2022/08/26 01:49:53;;;;;;;0.50;0.50;;;;;;;27.17;43.17;94688.91;5047874;28;20212;-68
2022/08/26 01:52:27;;;;;;;0.83;0.60;;;;;;;27.12;43.67;94692.66;5039748;28;20220;-68
2022/08/26 01:54:57;;;;;;;0.37;0.37;;;;;;;26.90;44.04;94664.72;5051298;28;20204;-67
2022/08/26 01:57:25;;;;;;;0.20;0.20;;;;;;;27.14;43.72;94695.00;5043704;28;20195;-67
2022/08/26 01:59:57;;;;;;;1.30;1.10;;;;;;;27.18;43.71;94685.84;5059283;28;20205;-67
2022/08/26 02:02:25;;;;;;;2.27;1.80;;;;;;;27.37;43.10;94698.41;5051201;28;20288;-68
2022/08/26 02:04:58;;;;;;;0.33;0.33;;;;;;;27.15;43.53;94691.97;5063474;28;20226;-69
2022/08/26 02:07:26;;;;;;;4.50;0.63;;;;;;;27.11;43.54;94701.09;5066645;28;20683;-67
2022/08/26 02:09:53;;;;;;;0.73;0.67;;;;;;;27.14;43.77;94692.31;5051722;28;20189;-67
2022/08/26 02:12:21;;;;;;;0.70;0.70;;;;;;;27.21;43.58;94695.09;5068521;28;20864;-67
2022/08/26 02:14:54;;;;;;;1.47;1.20;;;;;;;27.17;43.58;94680.81;5071269;28;20611;-67
2022/08/26 02:17:43;;;;;;;0.80;0.77;;;;;;;26.67;44.01;94680.13;5070350;28;20594;-67
2022/08/26 02:20:14;;;;;;;0.33;0.33;;;;;;;26.43;44.52;94691.25;5048362;28;20212;-68
2022/08/26 02:22:43;;;;;;;1.50;1.03;;;;;;;26.02;45.57;94697.44;5049521;28;20281;-67
2022/08/26 02:25:23;;;;;;;0.90;0.87;;;;;;;26.23;44.87;94695.13;5061649;28;20287;-68
2022/08/26 02:27:51;;;;;;;0.80;0.80;;;;;;;26.38;44.66;94685.41;5071209;28;20276;-68
2022/08/26 02:30:23;;;;;;;4.67;1.80;;;;;;;26.60;44.60;94682.69;5049656;28;20692;-68
2022/08/26 02:32:53;;;;;;;0.50;0.50;;;;;;;26.66;44.39;94686.59;5059017;28;20220;-68
2022/08/26 02:35:22;;;;;;;1.53;1.43;;;;;;;26.77;44.36;94686.78;5052145;28;20203;-68
2022/08/26 02:37:50;;;;;;;3.80;1.13;;;;;;;26.74;44.39;94672.19;5053756;28;21307;-67
2022/08/26 02:40:24;;;;;;;5.33;1.20;;;;;;;26.87;44.00;94686.97;5042068;28;20252;-68
2022/08/26 02:42:51;;;;;;;13.57;2.73;;;;;;;26.50;44.38;94683.28;5060951;28;20231;-67
2022/08/26 02:45:23;;;;;;;0.93;0.93;;;;;;;26.26;45.00;94694.41;5059752;28;20202;-67
2022/08/26 02:47:51;;;;;;;0.97;0.80;;;;;;;26.35;44.56;94692.25;5056460;28;20310;-68
2022/08/26 02:50:19;;;;;;;0.90;0.90;;;;;;;26.40;45.23;94686.59;5057250;28;20288;-67
2022/08/26 02:52:47;;;;;;;0.60;0.60;;;;;;;26.61;44.88;94686.13;5056640;28;20222;-67
2022/08/26 02:55:14;;;;;;;0.63;0.63;;;;;;;26.92;44.14;94685.84;5066192;28;20192;-68
2022/08/26 02:57:43;;;;;;;1.57;1.27;;;;;;;26.76;44.64;94680.66;5047070;28;20243;-68
2022/08/26 03:00:13;;;;;;;1.90;0.90;;;;;;;26.75;44.66;94678.34;5056080;28;20796;-68
2022/08/26 03:02:40;;;;;;;0.97;0.90;;;;;;;26.97;44.33;94689.00;5062917;28;20261;-68
2022/08/26 03:05:08;;;;;;;1.30;1.20;;;;;;;26.83;44.33;94680.75;5050436;28;20193;-67
2022/08/26 03:07:35;;;;;;;0.50;0.50;;;;;;;26.86;44.51;94690.03;5070212;28;20200;-68
2022/08/26 03:10:04;;;;;;;0.50;0.50;;;;;;;26.99;43.80;94684.06;5070292;28;20198;-67
2022/08/26 03:12:34;;;;;;;1.43;1.33;;;;;;;26.83;44.74;94690.72;5056174;28;20238;-68
2022/08/26 03:15:02;;;;;;;2.43;1.50;;;;;;;26.80;43.69;94689.56;5070458;28;20188;-67
2022/08/26 03:17:45;;;;;;;0.40;0.40;;;;;;;26.48;43.53;94684.78;5041953;28;20292;-66
2022/08/26 03:20:12;;;;;;;50.73;2.40;;;;;;;26.70;42.84;94687.47;5046582;28;20204;-68
2022/08/26 03:22:41;;;;;;;0.40;0.40;;;;;;;26.38;42.31;94696.16;5043849;28;20648;-67
2022/08/26 03:25:11;;;;;;;1.37;0.53;;;;;;;26.31;42.21;94699.50;5040234;28;20204;-67
2022/08/26 03:27:37;;;;;;;1.23;0.33;;;;;;;26.49;42.20;94692.50;5049694;28;20217;-68
2022/08/26 03:32:52;;;;;;;0.70;0.70;;;;;;;25.88;43.07;94691.81;5069374;28;20223;-66
2022/08/26 03:35:19;;;;;;;0.90;0.90;;;;;;;25.90;42.84;94701.06;5068324;28;20188;-69
2022/08/26 03:37:48;;;;;;;0.50;0.50;;;;;;;25.88;42.77;94705.22;5041937;28;20212;-66
2022/08/26 03:40:15;;;;;;;0.60;0.60;;;;;;;25.69;42.72;94699.91;5069318;28;20191;-68
2022/08/26 03:42:46;;;;;;;1.80;0.67;;;;;;;25.59;42.98;94692.41;5052434;28;20742;-67
2022/08/26 03:45:15;;;;;;;0.40;0.40;;;;;;;26.03;42.11;94690.94;5037287;28;20231;-69
2022/08/26 03:47:43;;;;;;;5.73;1.50;;;;;;;26.04;41.82;94689.81;5063713;28;20295;-68
2022/08/26 03:50:13;;;;;;;1.03;0.87;;;;;;;26.49;41.17;94687.13;5043863;28;20205;-68
2022/08/26 03:52:41;;;;;;;4.90;0.73;;;;;;;26.00;41.92;94683.59;5041576;28;20236;-67
2022/08/26 03:55:10;;;;;;;0.97;0.67;;;;;;;26.07;41.87;94691.81;5058650;28;20197;-68
2022/08/26 03:57:36;;;;;;;0.27;0.27;;;;;;;26.31;41.40;94691.44;5044864;28;20192;-68
2022/08/26 04:00:07;;;;;;;1.27;1.17;;;;;;;26.47;41.40;94688.63;5054906;28;20689;-68
2022/08/26 04:02:34;;;;;;;0.60;0.60;;;;;;;26.12;41.82;94691.50;5035656;28;20324;-68
2022/08/26 04:05:01;;;;;;;1.80;1.17;;;;;;;26.34;41.72;94685.34;5034072;28;20196;-68
2022/08/26 04:07:29;;;;;;;4.90;2.10;;;;;;;26.66;41.19;94697.38;5034427;28;20368;-66
2022/08/26 04:09:58;;;;;;;2.20;1.33;;;;;;;26.50;41.65;94683.28;5035599;28;20189;-67
2022/08/26 04:12:25;;;;;;;1.03;0.73;;;;;;;26.42;41.66;94692.38;5036716;28;20269;-69
2022/08/26 04:14:52;;;;;;;2.50;1.30;;;;;;;26.50;41.58;94683.28;5069244;28;20191;-68
2022/08/26 04:17:19;;;;;;;1.63;1.53;;;;;;;26.68;41.33;94673.63;5068283;28;20200;-70
2022/08/26 04:19:52;;;;;;;0.77;0.77;;;;;;;26.54;41.31;94681.44;5048938;28;20196;-69
2022/08/26 04:22:19;;;;;;;0.40;0.40;;;;;;;26.84;40.87;94687.66;5048814;28;20192;-69
2022/08/26 04:24:51;;;;;;;1.70;0.93;;;;;;;26.82;40.87;94681.88;5062066;28;20196;-67
2022/08/26 04:27:18;;;;;;;0.20;0.20;;;;;;;26.78;40.50;94673.00;5061998;28;20207;-67
2022/08/26 04:29:45;;;;;;;0.53;0.53;;;;;;;26.27;40.91;94685.25;5063619;28;20258;-66
2022/08/26 04:32:14;;;;;;;0.30;0.30;;;;;;;26.67;40.59;94682.03;5037286;28;20213;-69
2022/08/26 04:34:42;;;;;;;1.50;0.60;;;;;;;26.91;39.92;94685.09;5064970;28;20204;-65
2022/08/26 04:37:11;;;;;;;0.10;0.10;;;;;;;27.15;39.46;94677.72;5059134;28;20200;-66
2022/08/26 04:39:37;;;;;;;0.70;0.70;;;;;;;26.84;39.83;94679.59;5050792;28;20663;-67
2022/08/26 04:42:05;;;;;;;0.30;0.30;;;;;;;27.12;39.37;94676.53;5066659;28;20256;-67
2022/08/26 04:44:34;;;;;;;0.70;0.70;;;;;;;27.14;39.36;94681.53;5038741;28;20295;-67
2022/08/26 04:47:03;;;;;;;2.37;1.80;;;;;;;27.51;39.16;94687.81;5056369;28;20583;-72
2022/08/26 04:49:30;;;;;;;3.90;3.60;;;;;;;27.43;39.30;94692.31;5054867;28;20196;-69
2022/08/26 04:52:02;;;;;;;2.67;2.57;;;;;;;27.67;38.57;94678.38;5027906;28;21073;-68
2022/08/26 04:54:30;;;;;;;6.77;2.17;;;;;;;27.49;38.63;94685.50;5055480;28;20704;-67
2022/08/26 04:56:58;;;;;;;1.60;1.50;;;;;;;27.72;38.71;94677.25;5034713;28;20201;-66
2022/08/26 04:59:25;;;;;;;7.93;5.23;;;;;;;28.02;38.05;94686.09;5048859;28;20200;-72
2022/08/26 05:01:56;;;;;;;0.30;0.30;;;;;;;27.95;38.30;94680.63;5063633;28;20315;-70
2022/08/26 05:04:23;;;;;;;0.43;0.43;;;;;;;28.04;38.09;94678.41;5068990;28;20242;-69
2022/08/26 05:06:51;;;;;;;0.47;0.47;;;;;;;27.87;38.14;94685.13;5043848;28;20269;-68
2022/08/26 05:09:24;;;;;;;0.93;0.87;;;;;;;27.90;38.22;94691.72;5043488;28;20201;-74
2022/08/26 05:11:51;;;;;;;1.60;1.43;;;;;;;27.64;38.37;94691.81;5038275;28;20247;-72
2022/08/26 05:14:21;;;;;;;0.87;0.87;;;;;;;28.08;38.05;94687.31;5062359;28;20213;-67
2022/08/26 05:16:49;;;;;;;12.60;2.17;;;;;;;28.08;37.86;94695.38;5048768;28;20219;-74
2022/08/26 05:19:17;;;;;;;1.17;1.07;;;;;;;27.97;38.34;94689.13;5062696;28;20193;-71
2022/08/26 05:21:46;;;;;;;1.03;0.87;;;;;;;27.52;38.65;94678.56;5034900;28;20227;-71
2022/08/26 05:24:14;;;;;;;3.83;1.57;;;;;;;27.49;38.70;94690.09;5054719;28;20259;-68
2022/08/26 05:26:41;;;;;;;0.30;0.30;;;;;;;27.45;38.60;94694.66;5055370;28;20249;-69
2022/08/26 05:29:10;;;;;;;1.47;1.23;;;;;;;27.73;38.27;94705.75;5034542;28;20196;-67
2022/08/26 05:31:37;;;;;;;0.53;0.53;;;;;;;27.45;38.55;94702.72;5048617;28;20208;-69
2022/08/26 05:34:04;;;;;;;0.93;0.87;;;;;;;27.41;38.90;94705.38;5052201;28;20219;-67
2022/08/26 05:36:34;;;;;;;0.37;0.37;;;;;;;27.61;38.39;94695.25;5047566;28;20323;-69
2022/08/26 05:39:04;;;;;;;1.50;1.40;;;;;;;27.72;38.37;94701.50;5045373;28;20197;-68
2022/08/26 05:41:34;;;;;;;0.90;0.90;;;;;;;27.67;38.25;94707.22;5038637;28;20339;-68
2022/08/26 05:44:07;;;;;;;6.73;4.20;;;;;;;27.36;38.89;94703.00;5046529;28;20264;-72
2022/08/26 05:46:35;;;;;;;1.83;1.47;;;;;;;27.23;39.30;94703.56;5059158;28;20223;-66
2022/08/26 05:49:04;;;;;;;0.97;0.97;;;;;;;27.20;39.49;94712.38;5048061;28;20242;-69
2022/08/26 05:51:40;;;;;;;0.20;0.20;;;;;;;27.06;39.58;94712.19;5038082;28;20274;-70
2022/08/26 05:54:07;;;;;;;0.63;0.63;;;;;;;27.45;39.09;94703.50;5070877;28;20285;-70
2022/08/26 05:56:37;;;;;;;2.20;0.83;;;;;;;27.40;39.12;94703.06;5040549;28;20259;-71
2022/08/26 05:59:05;;;;;;;0.73;0.70;;;;;;;27.27;39.48;94704.38;5061743;28;20192;-70
2022/08/26 06:01:41;;;;;;;0.40;0.40;;;;;;;27.63;38.60;94709.09;5062201;28;20438;-69
2022/08/26 06:04:08;;;;;;;1.83;1.70;;;;;;;27.49;38.94;94711.63;5071427;28;20357;-69
2022/08/26 06:06:39;;;;;;;0.40;0.40;;;;;;;27.09;39.34;94722.22;5071579;28;20309;-69
2022/08/26 06:09:09;;;;;;;2.60;0.97;;;;;;;27.52;39.35;94721.66;5071368;28;20200;-70
2022/08/26 06:11:37;;;;;;;0.53;0.53;;;;;;;27.89;38.80;94703.63;5071684;28;20240;-69
2022/08/26 06:14:06;;;;;;;0.63;0.63;;;;;;;27.71;39.14;94716.13;5071731;28;20377;-70
2022/08/26 06:16:37;;;;;;;5.27;1.23;;;;;;;27.66;39.68;94719.13;5071646;28;20203;-70
2022/08/26 06:19:09;;;;;;;0.50;0.50;;;;;;;27.77;39.26;94701.19;5052134;28;20201;-68
2022/08/26 06:21:39;;;;;;;0.60;0.60;;;;;;;27.85;39.65;94719.75;5049828;28;20299;-69
2022/08/26 06:26:59;;;;;;;1.50;0.60;;;;;;;28.11;39.11;94728.88;5071543;28;20659;-70
2022/08/26 06:29:28;;;;;;;0.37;0.33;;;;;;;27.88;39.67;94718.25;5036023;28;20228;-69
2022/08/26 06:31:56;;;;;;;0.30;0.30;;;;;;;27.65;39.50;94725.66;5051754;28;20241;-69
2022/08/26 06:34:27;;;;;;;0.50;0.50;;;;;;;27.60;39.53;94712.53;5042618;28;20213;-70
2022/08/26 06:36:58;;;;;;;1.30;1.20;;;;;;;27.60;39.81;94725.97;5061926;28;20244;-69
2022/08/26 06:39:28;;;;;;;3.40;1.00;;;;;;;28.17;38.99;94725.50;5035603;28;20201;-69
2022/08/26 06:41:57;;;;;;;0.20;0.20;;;;;;;28.18;39.32;94716.25;5048093;28;20281;-71
2022/08/26 06:44:26;;;;;;;2.33;1.33;;;;;;;28.21;38.95;94726.28;5056474;28;20204;-69
2022/08/26 06:46:53;;;;;;;33.53;1.87;;;;;;;28.10;39.03;94722.75;5071038;28;20195;-69
2022/08/26 06:49:21;;;;;;;0.57;0.57;;;;;;;28.23;38.93;94718.59;5044095;28;20280;-70
2022/08/26 06:51:58;;;;;;;0.43;0.43;;;;;;;28.47;38.93;94734.22;5042476;28;20215;-70
2022/08/26 06:54:31;;;;;;;0.97;0.97;;;;;;;28.62;38.85;94735.94;5073287;28;20218;-69
2022/08/26 06:56:59;;;;;;;1.60;1.03;;;;;;;28.72;39.08;94735.22;5041737;28;20645;-69
2022/08/26 06:59:25;;;;;;;2.83;2.10;;;;;;;28.82;38.69;94734.56;5061977;28;20193;-67
2022/08/26 07:01:53;;;;;;;0.47;0.47;;;;;;;28.71;38.13;94722.91;5064844;28;20211;-71
2022/08/26 07:04:21;;;;;;;1.37;0.63;;;;;;;28.90;38.30;94736.13;5050822;28;20220;-70
2022/08/26 07:06:50;;;;;;;0.67;0.67;;;;;;;28.98;38.32;94735.03;5063857;28;20192;-67
2022/08/26 07:09:20;;;;;;;0.40;0.40;;;;;;;28.90;37.38;94736.13;5042575;28;20210;-70
2022/08/26 07:11:48;;;;;;;0.60;0.60;;;;;;;29.07;37.66;94739.34;5045502;28;20227;-71
2022/08/26 07:14:16;;;;;;;0.20;0.20;;;;;;;29.10;38.16;94733.19;5053229;28;20212;-70
2022/08/26 07:16:48;;;;;;;0.83;0.83;;;;;;;29.05;38.16;94736.25;5070329;28;20273;-70
2022/08/26 07:19:18;;;;;;;0.90;0.90;;;;;;;28.87;38.69;94731.50;5042022;28;20199;-69
2022/08/26 07:22:02;;;;;;;2.03;1.20;;;;;;;28.89;37.35;94729.22;5058046;28;20197;-69
2022/08/26 07:24:32;;;;;;;0.90;0.90;;;;;;;28.64;38.82;94741.72;5063786;28;20410;-69
2022/08/26 07:27:04;;;;;;;0.70;0.70;;;;;;;28.86;37.32;94745.38;5061867;28;20199;-68
2022/08/26 07:29:33;;;;;;;0.73;0.73;;;;;;;28.51;37.01;94729.66;5055895;28;20226;-69
2022/08/26 07:32:00;;;;;;;1.77;1.57;;;;;;;28.67;38.06;94738.28;5070086;28;20233;-71
2022/08/26 07:34:27;;;;;;;0.57;0.57;;;;;;;29.06;37.76;94732.38;5069787;28;20238;-70
2022/08/26 07:36:55;;;;;;;2.10;1.50;;;;;;;28.73;37.05;94736.78;5060724;28;20216;-68
2022/08/26 07:39:25;;;;;;;0.97;0.97;;;;;;;27.77;38.74;94741.59;5065493;28;20662;-71
2022/08/26 07:41:52;;;;;;;10.47;1.83;;;;;;;28.60;37.69;94748.22;5061596;28;20188;-70
2022/08/26 07:44:20;;;;;;;0.83;0.70;;;;;;;28.98;36.96;94737.75;5035305;28;20233;-69
2022/08/26 07:46:47;;;;;;;3.30;2.20;;;;;;;28.67;36.95;94737.50;5069777;28;20195;-68
2022/08/26 07:49:23;;;;;;;0.50;0.50;;;;;;;28.54;37.34;94734.31;5042937;28;20209;-68
2022/08/26 07:51:53;;;;;;;2.83;1.87;;;;;;;28.79;36.74;94740.69;5040783;28;20199;-68
2022/08/26 07:54:20;;;;;;;0.67;0.43;;;;;;;29.18;36.44;94746.38;5057710;28;20228;-70
2022/08/26 07:56:53;;;;;;;1.30;1.20;;;;;;;29.60;35.88;94745.81;5033848;28;20215;-70
2022/08/26 07:59:22;;;;;;;1.17;0.93;;;;;;;28.74;36.72;94738.34;5044169;28;20204;-69
2022/08/26 08:01:49;;;;;;;1.07;0.80;;;;;;;29.12;36.17;94747.13;5069077;28;20203;-65
2022/08/26 08:04:17;;;;;;;0.57;0.57;;;;;;;29.55;36.24;94738.09;5042967;28;20590;-69
2022/08/26 08:06:51;;;;;;;0.87;0.77;;;;;;;29.97;35.22;94732.88;5043224;28;20211;-66
2022/08/26 08:09:18;;;;;;;1.20;1.10;;;;;;;28.55;36.56;94740.50;5043271;28;20204;-71
2022/08/26 08:11:48;;;;;;;0.80;0.80;;;;;;;28.88;36.53;94743.84;5052809;28;20652;-67
2022/08/26 08:14:17;;;;;;;10.30;2.00;;;;;;;29.59;35.88;94723.47;5064140;28;20212;-71
2022/08/26 08:16:47;;;;;;;1.47;1.37;;;;;;;30.31;34.68;94733.38;5048934;28;20624;-71
2022/08/26 08:19:20;;;;;;;0.53;0.53;;;;;;;30.65;34.00;94729.94;5039945;28;20470;-70
2022/08/26 08:21:47;;;;;;;0.70;0.70;;;;;;;30.36;35.55;94733.78;5048105;28;20734;-67
2022/08/26 08:24:15;;;;;;;1.37;0.77;;;;;;;30.12;37.00;94739.88;5056736;28;20758;-68
2022/08/26 08:26:42;;;;;;;0.30;0.30;;;;;;;30.68;34.67;94729.16;5047283;28;20302;-69
2022/08/26 08:29:09;;;;;;;0.87;0.83;;;;;;;30.79;35.29;94738.03;5054709;28;20275;-68
2022/08/26 08:31:36;;;;;;;0.93;0.93;;;;;;;31.16;33.40;94731.44;5069065;28;20266;-69
2022/08/26 08:34:25;;;;;;;1.17;1.13;;;;;;;31.19;32.59;94727.94;5054780;28;20220;-66
2022/08/26 08:36:53;;;;;;;1.20;0.80;;;;;;;30.97;32.32;94734.59;5069646;28;20226;-67
2022/08/26 08:39:20;;;;;;;0.77;0.77;;;;;;;30.29;32.79;94728.34;5070163;28;20207;-70
2022/08/26 08:42:24;;;;;;;3.93;2.47;;;;;;;30.77;32.29;94726.81;5070860;28;20195;-69
2022/08/26 08:44:54;;;;;;;4.93;1.90;;;;;;;31.20;32.23;94727.59;5064046;28;20200;-67
2022/08/26 08:47:34;;;;;;;2.07;1.07;;;;;;;31.08;33.23;94719.06;5049113;28;20201;-70
2022/08/26 08:50:15;;;;;;;0.30;0.30;;;;;;;31.13;33.83;94711.34;5059377;28;20274;-69
2022/08/26 08:52:48;;;;;;;0.60;0.57;;;;;;;31.29;33.25;94714.41;5053950;28;20199;-72
2022/08/26 08:55:15;;;;;;;1.83;1.70;;;;;;;31.34;33.00;94713.22;5036370;28;20195;-72
2022/08/26 08:57:44;;;;;;;2.23;1.13;;;;;;;31.27;32.77;94710.53;5046864;28;20237;-65
2022/08/26 09:00:16;;;;;;;0.43;0.43;;;;;;;31.38;32.41;94717.50;5068598;28;20200;-68
2022/08/26 09:03:02;;;;;;;0.97;0.97;;;;;;;31.36;31.91;94711.72;5057892;28;20286;-68
2022/08/26 09:05:38;;;;;;;0.30;0.30;;;;;;;31.40;30.36;94703.56;5052659;28;20319;-69
2022/08/26 09:08:22;;;;;;;1.00;0.90;;;;;;;31.57;30.29;94706.22;5048796;28;20215;-69
2022/08/26 09:10:59;;;;;;;0.50;0.50;;;;;;;31.32;27.70;94707.44;5053077;28;20199;-68
2022/08/26 09:13:28;;;;;;;0.30;0.30;;;;;;;31.43;28.66;94702.78;5068714;28;20238;-68
2022/08/26 09:16:18;;;;;;;0.57;0.57;;;;;;;31.33;28.31;94703.56;5059450;28;20205;-69
2022/08/26 09:19:04;;;;;;;0.40;0.40;;;;;;;30.66;28.45;94706.34;5056263;28;20203;-68
2022/08/26 09:21:31;;;;;;;0.57;0.57;;;;;;;31.28;28.83;94701.25;5037166;28;20635;-68
2022/08/26 09:23:59;;;;;;;1.20;0.67;;;;;;;31.36;30.84;94697.38;5047667;28;20219;-67
2022/08/26 09:26:37;;;;;;;0.90;0.90;;;;;;;31.71;28.97;94692.63;5042411;28;20203;-68
2022/08/26 09:29:13;;;;;;;1.33;0.80;;;;;;;31.24;29.01;94689.69;5043507;28;20821;-67
2022/08/26 09:31:40;;;;;;;0.40;0.40;;;;;;;31.37;27.89;94688.88;5052584;28;20196;-70
2022/08/26 09:34:19;;;;;;;2.03;1.40;;;;;;;31.93;27.12;94682.47;5052234;28;20220;-66
2022/08/26 09:36:58;;;;;;;0.73;0.60;;;;;;;31.95;28.10;94685.56;5048438;28;20188;-70
2022/08/26 09:39:36;;;;;;;1.13;0.73;;;;;;;32.17;26.65;94675.34;5057944;28;20215;-66
2022/08/26 09:42:09;;;;;;;1.50;0.53;;;;;;;32.29;27.14;94681.06;5053336;28;20311;-69
2022/08/26 09:45:07;;;;;;;0.50;0.50;;;;;;;32.51;25.84;94685.19;5051671;28;20246;-70
2022/08/26 09:47:55;;;;;;;1.23;0.83;;;;;;;32.45;25.68;94686.00;5071919;28;20203;-69
2022/08/26 09:50:35;;;;;;;0.60;0.60;;;;;;;32.42;26.07;94676.75;5033414;28;20208;-65
2022/08/26 09:53:21;;;;;;;0.73;0.73;;;;;;;32.87;24.98;94682.16;5047848;28;20696;-66
2022/08/26 09:56:16;;;;;;;2.03;1.50;;;;;;;32.80;25.90;94689.22;5056221;28;20655;-68
2022/08/26 09:58:46;;;;;;;0.70;0.70;;;;;;;33.48;24.83;94686.63;5062349;28;20750;-67
2022/08/26 10:01:31;;;;;;;0.70;0.70;;;;;;;33.41;25.08;94681.25;5042946;28;20198;-67
2022/08/26 10:04:19;;;;;;;0.63;0.63;;;;;;;33.52;24.13;94681.94;5059587;28;20189;-65
2022/08/26 10:06:58;;;;;;;1.00;0.53;;;;;;;33.86;24.75;94674.50;5057627;28;20694;-68
2022/08/26 10:09:27;;;;;;;0.57;0.57;;;;;;;33.91;24.55;94671.31;5045331;28;20215;-67
2022/08/26 10:12:05;;;;;;;7.77;1.87;;;;;;;33.71;24.71;94675.88;5057982;28;20194;-66
2022/08/26 10:14:42;;;;;;;1.30;0.93;;;;;;;33.53;24.92;94675.31;5045253;28;20668;-66
2022/08/26 10:17:29;;;;;;;1.03;1.03;;;;;;;33.10;24.12;94666.09;5057561;28;20258;-66
2022/08/26 10:20:25;;;;;;;0.80;0.80;;;;;;;33.42;25.50;94677.34;5071938;28;20549;-67
2022/08/26 10:23:09;;;;;;;1.13;0.83;;;;;;;33.72;25.53;94667.28;5043432;28;20580;-66
2022/08/26 10:25:47;;;;;;;7.73;2.23;;;;;;;34.39;23.57;94663.66;5057387;28;20204;-66
2022/08/26 10:28:36;;;;;;;1.43;0.63;;;;;;;35.06;23.52;94662.56;5071674;28;20212;-67
2022/08/26 10:31:15;;;;;;;0.40;0.40;;;;;;;34.50;22.71;94658.84;5065455;28;20196;-67
2022/08/26 10:33:46;;;;;;;1.43;1.33;;;;;;;34.01;22.89;94665.00;5053611;28;20219;-68
2022/08/26 10:39:25;;;;;;;0.80;0.80;;;;;;;34.54;23.49;94658.78;5070555;28;20667;-66
2022/08/26 10:42:00;;;;;;;15.50;1.17;;;;;;;34.01;24.32;94662.28;5055181;28;20727;-67
2022/08/26 10:44:31;;;;;;;0.60;0.60;;;;;;;34.26;24.42;94662.69;5060336;28;20196;-66
2022/08/26 10:47:11;;;;;;;0.83;0.83;;;;;;;34.28;23.06;94657.63;5063078;28;20295;-65
2022/08/26 10:49:41;;;;;;;4.30;1.43;;;;;;;34.22;23.30;94664.69;5063247;28;20735;-66
2022/08/26 10:52:16;;;;;;;0.77;0.77;;;;;;;33.80;23.96;94665.25;5031009;28;20201;-67
2022/08/26 10:55:19;;;;;;;0.50;0.50;;;;;;;33.87;24.20;94665.16;5046836;28;20710;-66
2022/08/26 10:57:55;;;;;;;0.93;0.93;;;;;;;33.48;24.45;94664.91;5064262;28;20208;-67
2022/08/26 11:03:42;;;;;;;1.10;1.10;;;;;;;34.04;22.75;94657.97;5043331;28;20204;-68
2022/08/26 11:06:18;;;;;;;1.60;1.50;;;;;;;34.38;22.52;94645.78;5038412;28;20208;-65
2022/08/26 11:08:49;;;;;;;1.03;1.00;;;;;;;34.20;22.36;94653.44;5051625;28;20269;-66
2022/08/26 11:11:37;;;;;;;1.20;1.17;;;;;;;34.03;23.22;94653.72;5060830;28;20196;-65
2022/08/26 11:14:34;;;;;;;1.37;1.27;;;;;;;34.29;23.50;94653.69;5052877;28;20223;-67
2022/08/26 11:17:45;;;;;;;1.83;1.33;;;;;;;34.55;22.10;94650.22;5066400;28;20210;-69
2022/08/26 11:20:21;;;;;;;0.90;0.90;;;;;;;34.26;21.77;94643.66;5053542;28;20222;-65
2022/08/26 11:22:51;;;;;;;1.17;1.10;;;;;;;34.72;22.60;94642.94;5056199;28;20196;-66
2022/08/26 11:25:27;;;;;;;1.37;1.27;;;;;;;34.69;21.97;94638.31;5058947;28;20196;-68
2022/08/26 11:27:58;;;;;;;0.70;0.70;;;;;;;34.89;21.06;94635.63;5049838;28;20200;-66
2022/08/26 11:30:52;;;;;;;0.67;0.67;;;;;;;34.99;21.28;94634.69;5050089;28;20703;-65
2022/08/26 11:33:42;;;;;;;0.80;0.80;;;;;;;34.64;21.11;94634.13;5058118;28;20688;-67
2022/08/26 11:36:26;;;;;;;0.90;0.80;;;;;;;34.80;21.39;94636.16;5069774;28;20192;-65
2022/08/26 11:38:53;;;;;;;0.83;0.83;;;;;;;34.81;20.83;94634.22;5058735;28;20631;-68
2022/08/26 11:41:23;;;;;;;0.70;0.70;;;;;;;34.87;21.14;94635.28;5046547;28;20193;-66
2022/08/26 11:43:51;;;;;;;0.77;0.77;;;;;;;35.64;20.69;94620.94;5040726;28;20243;-65
2022/08/26 11:46:27;;;;;;;0.60;0.60;;;;;;;35.56;19.49;94613.34;5060010;28;20195;-68
2022/08/26 11:49:05;;;;;;;0.80;0.80;;;;;;;35.30;21.16;94627.88;5050281;28;20274;-65
2022/08/26 11:51:34;;;;;;;0.87;0.87;;;;;;;34.96;21.09;94630.09;5040969;28;20230;-66
2022/08/26 11:54:10;;;;;;;0.77;0.73;;;;;;;35.38;20.19;94624.56;5069646;28;20211;-67
2022/08/26 11:56:39;;;;;;;1.67;1.57;;;;;;;35.26;20.54;94622.50;5039484;28;20205;-67
2022/08/26 11:59:10;;;;;;;0.80;0.80;;;;;;;35.29;19.29;94610.00;5055333;28;20226;-66
2022/08/26 12:01:42;;;;;;;0.83;0.83;;;;;;;35.75;19.74;94614.50;5069224;28;20203;-67
2022/08/26 12:04:16;;;;;;;0.70;0.70;;;;;;;35.45;20.34;94612.81;5041175;28;20574;-64
2022/08/26 12:06:49;;;;;;;0.50;0.50;;;;;;;35.00;20.25;94603.56;5069434;28;20218;-65
2022/08/26 12:09:29;;;;;;;1.33;0.87;;;;;;;34.86;20.37;94617.38;5063694;28;20218;-67